Snyder, Colorado
Current Conditions -  °F | °C
As of 10:15 AM on Thursday 18 Dec 2014 (Local Time) from KFMM Reporting Station
Overcast Overcast  
Wind Chill: 16°   Ceiling: 4900
Heat Index: 25°   Visibility: 10mi
Dew Point: 19°   Wind: 9mph
Humidity: 77%   Direction: 270°W
Pressure: 30.07"   Gusts: NA
Location:  40.33°N, 103.6°W
Report Text: KFMM 181715Z AUTO 27008KT 10SM OVC049 M04/M07 A3007 RMK AO2 T10381073
Loading
Personal Weather Stations






























Interactive Weather Map New forecast layout! Learn more

10-Day Weather Forecast

Advertisements
Track Severe Weather on mobile